sensor_id;sensor_type;location;lat;lon;timestamp;pressure;altitude;pressure_sealevel;temperature;humidity
46464;BME280;32161;48.148;-1.554;2022-07-12T00:02:21;101517.69;;;24.32;63.14
46464;BME280;32161;48.148;-1.554;2022-07-12T00:04:48;101505.44;;;24.19;63.71
46464;BME280;32161;48.148;-1.554;2022-07-12T00:07:16;101500.56;;;24.11;64.07
46464;BME280;32161;48.148;-1.554;2022-07-12T00:09:44;101497.34;;;24.04;64.11
46464;BME280;32161;48.148;-1.554;2022-07-12T00:12:11;101505.44;;;24.00;64.05
46464;BME280;32161;48.148;-1.554;2022-07-12T00:14:40;101499.38;;;23.98;64.18
46464;BME280;32161;48.148;-1.554;2022-07-12T00:17:09;101503.16;;;23.88;64.43
46464;BME280;32161;48.148;-1.554;2022-07-12T00:19:36;101515.44;;;23.82;64.04
46464;BME280;32161;48.148;-1.554;2022-07-12T00:22:04;101512.97;;;23.81;64.43
46464;BME280;32161;48.148;-1.554;2022-07-12T00:24:32;101506.88;;;23.79;64.39
46464;BME280;32161;48.148;-1.554;2022-07-12T00:26:59;101509.44;;;23.75;64.55
46464;BME280;32161;48.148;-1.554;2022-07-12T00:29:27;101502.59;;;23.68;64.91
46464;BME280;32161;48.148;-1.554;2022-07-12T00:31:55;101497.66;;;23.64;64.55
46464;BME280;32161;48.148;-1.554;2022-07-12T00:34:24;101499.88;;;23.62;64.64
46464;BME280;32161;48.148;-1.554;2022-07-12T00:36:51;101505.44;;;23.62;64.33
46464;BME280;32161;48.148;-1.554;2022-07-12T00:39:19;101504.94;;;23.60;64.45
46464;BME280;32161;48.148;-1.554;2022-07-12T00:41:48;101501.03;;;23.61;64.34
46464;BME280;32161;48.148;-1.554;2022-07-12T00:44:16;101502.38;;;23.64;64.29
46464;BME280;32161;48.148;-1.554;2022-07-12T00:46:44;101499.88;;;23.62;64.11
46464;BME280;32161;48.148;-1.554;2022-07-12T00:49:12;101500.47;;;23.59;64.20
46464;BME280;32161;48.148;-1.554;2022-07-12T00:51:43;101491.09;;;23.55;64.21
46464;BME280;32161;48.148;-1.554;2022-07-12T00:54:11;101491.72;;;23.52;64.31
46464;BME280;32161;48.148;-1.554;2022-07-12T00:56:38;101492.00;;;23.51;64.28
46464;BME280;32161;48.148;-1.554;2022-07-12T00:59:06;101486.78;;;23.49;64.27
46464;BME280;32161;48.148;-1.554;2022-07-12T01:01:34;101496.19;;;23.48;64.43
46464;BME280;32161;48.148;-1.554;2022-07-12T01:04:02;101489.91;;;23.43;64.48
46464;BME280;32161;48.148;-1.554;2022-07-12T01:06:30;101493.00;;;23.41;64.86
46464;BME280;32161;48.148;-1.554;2022-07-12T01:08:59;101499.41;;;23.36;64.70
46464;BME280;32161;48.148;-1.554;2022-07-12T01:11:27;101490.25;;;23.36;64.67
46464;BME280;32161;48.148;-1.554;2022-07-12T01:13:54;101493.94;;;23.31;64.67
46464;BME280;32161;48.148;-1.554;2022-07-12T01:16:24;101496.19;;;23.29;64.47
46464;BME280;32161;48.148;-1.554;2022-07-12T01:18:53;101506.44;;;23.29;64.72
46464;BME280;32161;48.148;-1.554;2022-07-12T01:21:22;101504.28;;;23.26;64.58
46464;BME280;32161;48.148;-1.554;2022-07-12T01:23:52;101509.53;;;23.27;64.37
46464;BME280;32161;48.148;-1.554;2022-07-12T01:26:20;101507.56;;;23.28;64.46
46464;BME280;32161;48.148;-1.554;2022-07-12T01:28:48;101508.72;;;23.27;64.26
46464;BME280;32161;48.148;-1.554;2022-07-12T01:31:16;101504.88;;;23.23;64.25
46464;BME280;32161;48.148;-1.554;2022-07-12T01:33:44;101497.16;;;23.20;64.84
46464;BME280;32161;48.148;-1.554;2022-07-12T01:36:12;101502.22;;;23.12;65.37
46464;BME280;32161;48.148;-1.554;2022-07-12T01:38:40;101498.22;;;23.00;66.16
46464;BME280;32161;48.148;-1.554;2022-07-12T01:41:08;101495.84;;;22.88;66.30
46464;BME280;32161;48.148;-1.554;2022-07-12T01:43:36;101499.84;;;22.77;66.73
46464;BME280;32161;48.148;-1.554;2022-07-12T01:46:04;101504.09;;;22.69;67.10
46464;BME280;32161;48.148;-1.554;2022-07-12T01:48:32;101503.53;;;22.67;67.33
46464;BME280;32161;48.148;-1.554;2022-07-12T01:50:59;101504.19;;;22.59;66.76
46464;BME280;32161;48.148;-1.554;2022-07-12T01:53:27;101502.28;;;22.54;67.24
46464;BME280;32161;48.148;-1.554;2022-07-12T01:55:55;101497.38;;;22.46;67.04
46464;BME280;32161;48.148;-1.554;2022-07-12T02:00:51;101495.81;;;22.35;67.98
46464;BME280;32161;48.148;-1.554;2022-07-12T02:03:20;101497.22;;;22.32;68.04
46464;BME280;32161;48.148;-1.554;2022-07-12T02:05:47;101502.81;;;22.27;68.41
46464;BME280;32161;48.148;-1.554;2022-07-12T02:08:15;101512.00;;;22.23;68.18
46464;BME280;32161;48.148;-1.554;2022-07-12T02:10:43;101506.16;;;22.24;68.21
46464;BME280;32161;48.148;-1.554;2022-07-12T02:13:11;101517.19;;;22.29;67.81
46464;BME280;32161;48.148;-1.554;2022-07-12T02:15:40;101515.28;;;22.30;67.52
46464;BME280;32161;48.148;-1.554;2022-07-12T02:18:07;101533.00;;;22.29;67.47
46464;BME280;32161;48.148;-1.554;2022-07-12T02:20:35;101526.94;;;22.27;67.51
46464;BME280;32161;48.148;-1.554;2022-07-12T02:23:02;101538.06;;;22.22;67.88
46464;BME280;32161;48.148;-1.554;2022-07-12T02:25:30;101535.31;;;22.16;67.44
46464;BME280;32161;48.148;-1.554;2022-07-12T02:27:58;101535.31;;;22.16;67.72
46464;BME280;32161;48.148;-1.554;2022-07-12T02:30:26;101541.41;;;22.13;67.10
46464;BME280;32161;48.148;-1.554;2022-07-12T02:32:54;101538.91;;;22.12;67.20
46464;BME280;32161;48.148;-1.554;2022-07-12T02:35:22;101546.44;;;22.06;67.96
46464;BME280;32161;48.148;-1.554;2022-07-12T02:37:50;101541.22;;;22.00;67.88
46464;BME280;32161;48.148;-1.554;2022-07-12T02:40:18;101542.91;;;21.96;68.11
46464;BME280;32161;48.148;-1.554;2022-07-12T02:43:03;101542.38;;;21.93;68.18
46464;BME280;32161;48.148;-1.554;2022-07-12T02:45:31;101542.13;;;21.90;68.29
46464;BME280;32161;48.148;-1.554;2022-07-12T02:48:00;101554.03;;;21.85;68.32
46464;BME280;32161;48.148;-1.554;2022-07-12T02:50:28;101559.88;;;21.84;68.91
46464;BME280;32161;48.148;-1.554;2022-07-12T02:52:56;101555.78;;;21.76;69.25
46464;BME280;32161;48.148;-1.554;2022-07-12T02:55:23;101551.06;;;21.72;69.24
46464;BME280;32161;48.148;-1.554;2022-07-12T02:57:51;101546.75;;;21.60;69.81
46464;BME280;32161;48.148;-1.554;2022-07-12T03:00:18;101550.94;;;21.53;70.25
46464;BME280;32161;48.148;-1.554;2022-07-12T03:02:46;101545.41;;;21.53;70.27
46464;BME280;32161;48.148;-1.554;2022-07-12T03:05:15;101542.91;;;21.51;70.01
46464;BME280;32161;48.148;-1.554;2022-07-12T03:07:43;101546.78;;;21.50;69.62
46464;BME280;32161;48.148;-1.554;2022-07-12T03:10:11;101549.88;;;21.38;70.46
46464;BME280;32161;48.148;-1.554;2022-07-12T03:12:38;101546.56;;;21.36;70.34
46464;BME280;32161;48.148;-1.554;2022-07-12T03:15:07;101547.16;;;21.33;70.44
46464;BME280;32161;48.148;-1.554;2022-07-12T03:17:35;101549.31;;;21.36;70.40
46464;BME280;32161;48.148;-1.554;2022-07-12T03:20:04;101546.28;;;21.33;70.65
46464;BME280;32161;48.148;-1.554;2022-07-12T03:22:34;101547.94;;;21.29;71.01
46464;BME280;32161;48.148;-1.554;2022-07-12T03:25:02;101546.28;;;21.28;70.82
46464;BME280;32161;48.148;-1.554;2022-07-12T03:27:30;101553.19;;;21.30;70.54
46464;BME280;32161;48.148;-1.554;2022-07-12T03:29:58;101552.38;;;21.30;70.54
46464;BME280;32161;48.148;-1.554;2022-07-12T03:32:25;101541.84;;;21.32;70.51
46464;BME280;32161;48.148;-1.554;2022-07-12T03:34:53;101545.72;;;21.31;70.55
46464;BME280;32161;48.148;-1.554;2022-07-12T03:37:21;101549.09;;;21.23;70.61
46464;BME280;32161;48.148;-1.554;2022-07-12T03:39:50;101544.94;;;21.20;70.86
46464;BME280;32161;48.148;-1.554;2022-07-12T03:42:17;101543.28;;;21.14;71.14
46464;BME280;32161;48.148;-1.554;2022-07-12T03:44:45;101550.22;;;21.06;70.83
46464;BME280;32161;48.148;-1.554;2022-07-12T03:47:12;101550.53;;;21.00;71.32
46464;BME280;32161;48.148;-1.554;2022-07-12T03:49:40;101561.03;;;20.97;71.42
46464;BME280;32161;48.148;-1.554;2022-07-12T03:52:08;101560.50;;;20.95;71.27
46464;BME280;32161;48.148;-1.554;2022-07-12T03:54:35;101553.84;;;20.96;71.23
46464;BME280;32161;48.148;-1.554;2022-07-12T03:57:05;101556.59;;;21.02;70.83
46464;BME280;32161;48.148;-1.554;2022-07-12T03:59:42;101559.09;;;21.03;71.03
46464;BME280;32161;48.148;-1.554;2022-07-12T04:02:10;101556.88;;;21.00;71.29
46464;BME280;32161;48.148;-1.554;2022-07-12T04:04:38;101562.44;;;20.95;71.24
46464;BME280;32161;48.148;-1.554;2022-07-12T04:07:07;101556.34;;;20.93;71.18
46464;BME280;32161;48.148;-1.554;2022-07-12T04:09:35;101564.13;;;20.91;71.46
46464;BME280;32161;48.148;-1.554;2022-07-12T04:12:05;101565.75;;;20.87;70.72
46464;BME280;32161;48.148;-1.554;2022-07-12T04:14:32;101563.53;;;20.89;71.05
46464;BME280;32161;48.148;-1.554;2022-07-12T04:17:00;101571.28;;;20.87;71.62
46464;BME280;32161;48.148;-1.554;2022-07-12T04:19:28;101576.00;;;20.81;71.80
46464;BME280;32161;48.148;-1.554;2022-07-12T04:21:57;101575.19;;;20.70;72.07
46464;BME280;32161;48.148;-1.554;2022-07-12T04:24:25;101572.16;;;20.62;72.76
46464;BME280;32161;48.148;-1.554;2022-07-12T04:26:53;101582.38;;;20.61;72.80
46464;BME280;32161;48.148;-1.554;2022-07-12T04:29:22;101584.56;;;20.59;72.50
46464;BME280;32161;48.148;-1.554;2022-07-12T04:31:49;101580.16;;;20.63;71.69
46464;BME280;32161;48.148;-1.554;2022-07-12T04:34:17;101578.22;;;20.64;72.28
46464;BME280;32161;48.148;-1.554;2022-07-12T04:36:45;101586.81;;;20.57;72.80
46464;BME280;32161;48.148;-1.554;2022-07-12T04:39:14;101589.53;;;20.52;73.02
46464;BME280;32161;48.148;-1.554;2022-07-12T04:41:41;101588.13;;;20.44;73.36
46464;BME280;32161;48.148;-1.554;2022-07-12T04:44:09;101587.59;;;20.37;73.67
46464;BME280;32161;48.148;-1.554;2022-07-12T04:46:38;101582.88;;;20.33;73.85
46464;BME280;32161;48.148;-1.554;2022-07-12T04:49:06;101579.00;;;20.29;74.12
46464;BME280;32161;48.148;-1.554;2022-07-12T04:51:33;101576.00;;;20.30;74.21
46464;BME280;32161;48.148;-1.554;2022-07-12T04:54:01;101571.84;;;20.22;74.54
46464;BME280;32161;48.148;-1.554;2022-07-12T04:56:29;101572.94;;;20.21;74.81
46464;BME280;32161;48.148;-1.554;2022-07-12T04:58:57;101579.03;;;20.18;75.13
46464;BME280;32161;48.148;-1.554;2022-07-12T05:01:24;101581.22;;;20.21;75.25
46464;BME280;32161;48.148;-1.554;2022-07-12T05:03:53;101569.91;;;20.23;75.33
46464;BME280;32161;48.148;-1.554;2022-07-12T05:06:21;101580.41;;;20.26;75.30
46464;BME280;32161;48.148;-1.554;2022-07-12T05:08:49;101580.69;;;20.30;75.32
46464;BME280;32161;48.148;-1.554;2022-07-12T05:11:17;101587.31;;;20.34;75.07
46464;BME280;32161;48.148;-1.554;2022-07-12T05:13:45;101585.66;;;20.38;75.06
46464;BME280;32161;48.148;-1.554;2022-07-12T05:16:13;101592.56;;;20.40;74.96
46464;BME280;32161;48.148;-1.554;2022-07-12T05:18:40;101593.38;;;20.41;74.50
46464;BME280;32161;48.148;-1.554;2022-07-12T05:21:09;101595.03;;;20.47;74.58
46464;BME280;32161;48.148;-1.554;2022-07-12T05:23:37;101599.75;;;20.52;74.39
46464;BME280;32161;48.148;-1.554;2022-07-12T05:26:05;101597.28;;;20.55;74.36
46464;BME280;32161;48.148;-1.554;2022-07-12T05:28:33;101592.03;;;20.59;74.29
46464;BME280;32161;48.148;-1.554;2022-07-12T05:31:00;101590.66;;;20.66;74.53
46464;BME280;32161;48.148;-1.554;2022-07-12T05:33:28;101584.84;;;20.73;74.85
46464;BME280;32161;48.148;-1.554;2022-07-12T05:35:56;101592.88;;;20.80;75.86
46464;BME280;32161;48.148;-1.554;2022-07-12T05:38:25;101592.88;;;20.80;76.75
46464;BME280;32161;48.148;-1.554;2022-07-12T05:40:52;101590.66;;;20.77;76.92
46464;BME280;32161;48.148;-1.554;2022-07-12T05:43:20;101596.44;;;20.80;77.31
46464;BME280;32161;48.148;-1.554;2022-07-12T05:45:47;101592.56;;;20.91;77.32
46464;BME280;32161;48.148;-1.554;2022-07-12T05:48:15;101597.25;;;20.96;77.83
46464;BME280;32161;48.148;-1.554;2022-07-12T05:50:43;101594.47;;;21.01;77.72
46464;BME280;32161;48.148;-1.554;2022-07-12T05:53:10;101600.53;;;21.13;78.03
46464;BME280;32161;48.148;-1.554;2022-07-12T05:55:51;101603.81;;;21.26;78.13
46464;BME280;32161;48.148;-1.554;2022-07-12T05:58:21;101599.38;;;21.40;77.62
46464;BME280;32161;48.148;-1.554;2022-07-12T06:00:48;101604.31;;;21.53;77.81
46464;BME280;32161;48.148;-1.554;2022-07-12T06:03:16;101600.91;;;21.66;77.38
46464;BME280;32161;48.148;-1.554;2022-07-12T06:05:44;101615.81;;;21.81;77.48
46464;BME280;32161;48.148;-1.554;2022-07-12T06:08:12;101621.53;;;21.94;76.70
46464;BME280;32161;48.148;-1.554;2022-07-12T06:10:39;101623.63;;;22.13;76.24
46464;BME280;32161;48.148;-1.554;2022-07-12T06:13:08;101623.31;;;22.25;75.06
46464;BME280;32161;48.148;-1.554;2022-07-12T06:15:36;101621.25;;;22.40;73.59
46464;BME280;32161;48.148;-1.554;2022-07-12T06:18:04;101630.53;;;22.60;72.34
46464;BME280;32161;48.148;-1.554;2022-07-12T06:20:32;101620.69;;;22.78;73.40
46464;BME280;32161;48.148;-1.554;2022-07-12T06:23:00;101627.75;;;22.94;72.37
46464;BME280;32161;48.148;-1.554;2022-07-12T06:25:27;101631.00;;;23.06;71.62
46464;BME280;32161;48.148;-1.554;2022-07-12T06:27:55;101636.31;;;23.27;70.72
46464;BME280;32161;48.148;-1.554;2022-07-12T06:30:24;101644.47;;;23.42;69.66
46464;BME280;32161;48.148;-1.554;2022-07-12T06:32:52;101639.03;;;23.56;69.35
46464;BME280;32161;48.148;-1.554;2022-07-12T06:35:19;101638.28;;;23.74;68.73
46464;BME280;32161;48.148;-1.554;2022-07-12T06:37:47;101638.91;;;23.90;67.52
46464;BME280;32161;48.148;-1.554;2022-07-12T06:40:14;101642.09;;;24.02;67.37
46464;BME280;32161;48.148;-1.554;2022-07-12T06:42:43;101640.19;;;24.17;66.64
46464;BME280;32161;48.148;-1.554;2022-07-12T06:45:11;101643.88;;;24.31;65.74
46464;BME280;32161;48.148;-1.554;2022-07-12T06:47:40;101650.97;;;24.42;66.19
46464;BME280;32161;48.148;-1.554;2022-07-12T06:50:08;101652.09;;;24.60;65.83
46464;BME280;32161;48.148;-1.554;2022-07-12T06:52:36;101650.16;;;24.74;65.05
46464;BME280;32161;48.148;-1.554;2022-07-12T06:55:05;101651.34;;;24.87;64.48
46464;BME280;32161;48.148;-1.554;2022-07-12T06:57:33;101656.09;;;25.00;65.23
46464;BME280;32161;48.148;-1.554;2022-07-12T07:00:01;101652.88;;;25.12;64.35
46464;BME280;32161;48.148;-1.554;2022-07-12T07:02:30;101657.63;;;25.25;64.08
46464;BME280;32161;48.148;-1.554;2022-07-12T07:04:59;101657.97;;;25.38;63.83
46464;BME280;32161;48.148;-1.554;2022-07-12T07:07:27;101654.06;;;25.52;63.72
46464;BME280;32161;48.148;-1.554;2022-07-12T07:09:55;101664.03;;;25.67;62.84
46464;BME280;32161;48.148;-1.554;2022-07-12T07:12:22;101659.00;;;25.83;61.50
46464;BME280;32161;48.148;-1.554;2022-07-12T07:14:50;101662.38;;;25.94;61.08
46464;BME280;32161;48.148;-1.554;2022-07-12T07:17:18;101669.72;;;26.03;61.22
46464;BME280;32161;48.148;-1.554;2022-07-12T07:19:46;101669.59;;;26.09;61.18
46464;BME280;32161;48.148;-1.554;2022-07-12T07:22:15;101676.09;;;26.18;60.66
46464;BME280;32161;48.148;-1.554;2022-07-12T07:24:44;101681.13;;;26.29;59.79
46464;BME280;32161;48.148;-1.554;2022-07-12T07:27:12;101673.84;;;26.42;59.65
46464;BME280;32161;48.148;-1.554;2022-07-12T07:29:40;101685.28;;;26.54;59.08
46464;BME280;32161;48.148;-1.554;2022-07-12T07:32:25;101681.81;;;26.71;59.75
46464;BME280;32161;48.148;-1.554;2022-07-12T07:34:52;101685.50;;;26.81;59.49
46464;BME280;32161;48.148;-1.554;2022-07-12T07:37:21;101684.91;;;26.92;59.27
46464;BME280;32161;48.148;-1.554;2022-07-12T07:39:50;101687.63;;;27.06;58.52
46464;BME280;32161;48.148;-1.554;2022-07-12T07:42:17;101684.59;;;27.16;58.46
46464;BME280;32161;48.148;-1.554;2022-07-12T07:44:45;101689.19;;;27.21;57.76
46464;BME280;32161;48.148;-1.554;2022-07-12T07:47:12;101692.38;;;27.28;58.68
46464;BME280;32161;48.148;-1.554;2022-07-12T07:49:40;101690.97;;;27.48;57.70
46464;BME280;32161;48.148;-1.554;2022-07-12T07:52:07;101698.75;;;27.60;57.46
46464;BME280;32161;48.148;-1.554;2022-07-12T07:54:36;101692.41;;;27.68;57.26
46464;BME280;32161;48.148;-1.554;2022-07-12T07:57:05;101692.75;;;27.75;56.11
46464;BME280;32161;48.148;-1.554;2022-07-12T07:59:33;101685.72;;;27.86;55.52
46464;BME280;32161;48.148;-1.554;2022-07-12T08:02:00;101686.41;;;28.01;57.72
46464;BME280;32161;48.148;-1.554;2022-07-12T08:04:28;101691.53;;;28.16;57.31
46464;BME280;32161;48.148;-1.554;2022-07-12T08:06:55;101687.81;;;28.38;54.97
46464;BME280;32161;48.148;-1.554;2022-07-12T08:09:24;101688.28;;;28.40;53.92
46464;BME280;32161;48.148;-1.554;2022-07-12T08:11:53;101690.28;;;28.48;53.88
46464;BME280;32161;48.148;-1.554;2022-07-12T08:14:21;101688.94;;;28.63;52.82
46464;BME280;32161;48.148;-1.554;2022-07-12T08:16:48;101688.97;;;28.71;54.47
46464;BME280;32161;48.148;-1.554;2022-07-12T08:19:16;101691.09;;;28.66;53.61
46464;BME280;32161;48.148;-1.554;2022-07-12T08:21:44;101694.56;;;28.71;53.34
46464;BME280;32161;48.148;-1.554;2022-07-12T08:24:12;101689.78;;;28.81;52.45
46464;BME280;32161;48.148;-1.554;2022-07-12T08:26:39;101694.22;;;28.99;51.36
46464;BME280;32161;48.148;-1.554;2022-07-12T08:29:08;101691.41;;;29.08;53.28
46464;BME280;32161;48.148;-1.554;2022-07-12T08:31:36;101700.44;;;29.22;53.43
46464;BME280;32161;48.148;-1.554;2022-07-12T08:34:04;101698.09;;;29.33;51.88
46464;BME280;32161;48.148;-1.554;2022-07-12T08:36:31;101697.88;;;29.47;51.55
46464;BME280;32161;48.148;-1.554;2022-07-12T08:38:59;101700.63;;;29.55;51.79
46464;BME280;32161;48.148;-1.554;2022-07-12T08:41:26;101701.59;;;29.68;52.06
46464;BME280;32161;48.148;-1.554;2022-07-12T08:43:55;101706.50;;;29.71;50.67
46464;BME280;32161;48.148;-1.554;2022-07-12T08:46:24;101699.72;;;29.81;50.97
46464;BME280;32161;48.148;-1.554;2022-07-12T08:48:52;101703.94;;;29.96;49.96
46464;BME280;32161;48.148;-1.554;2022-07-12T08:51:21;101697.66;;;29.90;50.39
46464;BME280;32161;48.148;-1.554;2022-07-12T08:54:05;101701.41;;;30.03;49.18
46464;BME280;32161;48.148;-1.554;2022-07-12T08:56:35;101700.03;;;30.09;50.16
46464;BME280;32161;48.148;-1.554;2022-07-12T08:59:11;101707.31;;;30.10;49.61
46464;BME280;32161;48.148;-1.554;2022-07-12T09:01:42;101706.13;;;30.11;49.15
46464;BME280;32161;48.148;-1.554;2022-07-12T09:04:12;101701.59;;;30.27;49.01
46464;BME280;32161;48.148;-1.554;2022-07-12T09:06:39;101702.44;;;30.49;47.60
46464;BME280;32161;48.148;-1.554;2022-07-12T09:09:08;101703.44;;;30.65;47.24
46464;BME280;32161;48.148;-1.554;2022-07-12T09:11:38;101698.78;;;30.69;47.45
46464;BME280;32161;48.148;-1.554;2022-07-12T09:14:06;101703.78;;;30.84;46.77
46464;BME280;32161;48.148;-1.554;2022-07-12T09:16:34;101700.47;;;30.82;48.01
46464;BME280;32161;48.148;-1.554;2022-07-12T09:19:21;101700.19;;;30.96;46.12
46464;BME280;32161;48.148;-1.554;2022-07-12T09:21:51;101705.13;;;30.99;46.79
46464;BME280;32161;48.148;-1.554;2022-07-12T09:24:20;101707.28;;;31.15;47.32
46464;BME280;32161;48.148;-1.554;2022-07-12T09:26:48;101710.47;;;31.25;46.81
46464;BME280;32161;48.148;-1.554;2022-07-12T09:29:16;101708.97;;;31.40;47.21
46464;BME280;32161;48.148;-1.554;2022-07-12T09:31:48;101711.69;;;31.49;46.78
46464;BME280;32161;48.148;-1.554;2022-07-12T09:34:37;101707.47;;;31.67;45.91
46464;BME280;32161;48.148;-1.554;2022-07-12T09:37:23;101706.91;;;31.74;45.55
46464;BME280;32161;48.148;-1.554;2022-07-12T09:39:52;101707.00;;;31.77;45.17
46464;BME280;32161;48.148;-1.554;2022-07-12T09:42:20;101708.59;;;31.87;46.59
46464;BME280;32161;48.148;-1.554;2022-07-12T09:44:48;101714.66;;;32.01;43.69
46464;BME280;32161;48.148;-1.554;2022-07-12T09:47:16;101711.00;;;32.13;43.96
46464;BME280;32161;48.148;-1.554;2022-07-12T09:49:45;101707.47;;;32.16;43.62
46464;BME280;32161;48.148;-1.554;2022-07-12T09:52:20;101714.97;;;32.24;44.98
46464;BME280;32161;48.148;-1.554;2022-07-12T09:54:51;101717.19;;;32.31;44.47
46464;BME280;32161;48.148;-1.554;2022-07-12T09:57:22;101718.47;;;32.33;42.23
46464;BME280;32161;48.148;-1.554;2022-07-12T09:59:53;101712.84;;;32.33;43.41
46464;BME280;32161;48.148;-1.554;2022-07-12T10:02:22;101713.22;;;32.44;44.34
46464;BME280;32161;48.148;-1.554;2022-07-12T10:04:51;101709.75;;;32.51;43.41
46464;BME280;32161;48.148;-1.554;2022-07-12T10:07:20;101708.47;;;32.61;43.27
46464;BME280;32161;48.148;-1.554;2022-07-12T10:09:52;101712.94;;;32.77;42.07
46464;BME280;32161;48.148;-1.554;2022-07-12T10:12:22;101716.47;;;32.74;42.17
46464;BME280;32161;48.148;-1.554;2022-07-12T10:14:53;101714.34;;;32.84;42.30
46464;BME280;32161;48.148;-1.554;2022-07-12T10:17:23;101715.84;;;32.93;41.56
46464;BME280;32161;48.148;-1.554;2022-07-12T10:20:15;101706.53;;;32.93;40.79
46464;BME280;32161;48.148;-1.554;2022-07-12T10:22:45;101711.69;;;33.03;40.81
46464;BME280;32161;48.148;-1.554;2022-07-12T10:25:34;101708.34;;;33.13;42.20
46464;BME280;32161;48.148;-1.554;2022-07-12T10:28:03;101716.72;;;33.10;41.60
46464;BME280;32161;48.148;-1.554;2022-07-12T10:30:31;101715.06;;;33.24;41.67
46464;BME280;32161;48.148;-1.554;2022-07-12T10:33:15;101720.19;;;33.35;41.81
46464;BME280;32161;48.148;-1.554;2022-07-12T10:36:01;101720.00;;;33.43;41.96
46464;BME280;32161;48.148;-1.554;2022-07-12T10:38:30;101723.22;;;33.58;42.37
46464;BME280;32161;48.148;-1.554;2022-07-12T10:40:57;101710.22;;;33.69;40.96
46464;BME280;32161;48.148;-1.554;2022-07-12T10:43:29;101709.19;;;33.77;39.15
46464;BME280;32161;48.148;-1.554;2022-07-12T10:46:22;101717.19;;;33.91;39.52
46464;BME280;32161;48.148;-1.554;2022-07-12T10:51:35;101718.59;;;33.65;39.69
46464;BME280;32161;48.148;-1.554;2022-07-12T10:54:21;101710.59;;;33.67;40.00
46464;BME280;32161;48.148;-1.554;2022-07-12T10:56:58;101715.53;;;33.90;39.54
46464;BME280;32161;48.148;-1.554;2022-07-12T10:59:26;101710.19;;;34.00;40.36
46464;BME280;32161;48.148;-1.554;2022-07-12T11:01:56;101699.00;;;34.04;40.34
46464;BME280;32161;48.148;-1.554;2022-07-12T11:04:24;101701.59;;;34.13;38.92
46464;BME280;32161;48.148;-1.554;2022-07-12T11:06:54;101705.13;;;34.25;38.03
46464;BME280;32161;48.148;-1.554;2022-07-12T11:09:24;101708.16;;;34.36;39.19
46464;BME280;32161;48.148;-1.554;2022-07-12T11:11:53;101703.78;;;34.39;37.62
46464;BME280;32161;48.148;-1.554;2022-07-12T11:14:22;101700.53;;;34.37;39.13
46464;BME280;32161;48.148;-1.554;2022-07-12T11:16:53;101692.50;;;34.39;37.58
46464;BME280;32161;48.148;-1.554;2022-07-12T11:19:23;101688.84;;;34.19;38.18
46464;BME280;32161;48.148;-1.554;2022-07-12T11:21:53;101697.00;;;34.24;37.57
46464;BME280;32161;48.148;-1.554;2022-07-12T11:24:24;101698.00;;;34.32;36.98
46464;BME280;32161;48.148;-1.554;2022-07-12T11:26:53;101691.31;;;34.40;37.04
46464;BME280;32161;48.148;-1.554;2022-07-12T11:29:21;101694.28;;;34.47;37.39
46464;BME280;32161;48.148;-1.554;2022-07-12T11:31:50;101689.56;;;34.51;37.46
46464;BME280;32161;48.148;-1.554;2022-07-12T11:34:27;101692.84;;;34.72;37.23
46464;BME280;32161;48.148;-1.554;2022-07-12T11:36:58;101683.75;;;34.83;35.66
46464;BME280;32161;48.148;-1.554;2022-07-12T11:39:34;101685.47;;;34.87;38.21
46464;BME280;32161;48.148;-1.554;2022-07-12T11:42:04;101678.34;;;34.97;36.80
46464;BME280;32161;48.148;-1.554;2022-07-12T11:44:46;101683.88;;;34.90;36.11
46464;BME280;32161;48.148;-1.554;2022-07-12T11:47:16;101679.09;;;34.94;36.50
46464;BME280;32161;48.148;-1.554;2022-07-12T11:49:44;101685.66;;;34.98;36.13
46464;BME280;32161;48.148;-1.554;2022-07-12T11:52:14;101686.47;;;34.98;36.08
46464;BME280;32161;48.148;-1.554;2022-07-12T11:54:42;101675.38;;;35.09;35.98
46464;BME280;32161;48.148;-1.554;2022-07-12T11:57:12;101672.69;;;35.16;34.92
46464;BME280;32161;48.148;-1.554;2022-07-12T11:59:40;101670.75;;;35.20;33.94
46464;BME280;32161;48.148;-1.554;2022-07-12T12:02:11;101663.78;;;35.14;34.97
46464;BME280;32161;48.148;-1.554;2022-07-12T12:04:46;101658.81;;;35.08;35.03
46464;BME280;32161;48.148;-1.554;2022-07-12T12:07:17;101647.44;;;35.04;37.13
46464;BME280;32161;48.148;-1.554;2022-07-12T12:10:02;101644.00;;;35.14;35.38
46464;BME280;32161;48.148;-1.554;2022-07-12T12:12:37;101643.13;;;35.10;35.61
46464;BME280;32161;48.148;-1.554;2022-07-12T12:15:07;101629.53;;;35.19;35.46
46464;BME280;32161;48.148;-1.554;2022-07-12T12:17:37;101628.59;;;35.35;36.12
46464;BME280;32161;48.148;-1.554;2022-07-12T12:20:17;101632.28;;;35.39;35.52
46464;BME280;32161;48.148;-1.554;2022-07-12T12:22:47;101637.47;;;35.56;34.02
46464;BME280;32161;48.148;-1.554;2022-07-12T12:25:16;101628.19;;;35.59;34.06
46464;BME280;32161;48.148;-1.554;2022-07-12T12:27:45;101623.44;;;35.63;33.20
46464;BME280;32161;48.148;-1.554;2022-07-12T12:30:15;101625.88;;;35.65;34.27
46464;BME280;32161;48.148;-1.554;2022-07-12T12:32:45;101631.56;;;35.68;33.85
46464;BME280;32161;48.148;-1.554;2022-07-12T12:35:15;101631.56;;;35.68;35.35
46464;BME280;32161;48.148;-1.554;2022-07-12T12:37:51;101617.66;;;35.83;34.85
46464;BME280;32161;48.148;-1.554;2022-07-12T12:40:21;101623.06;;;35.95;34.64
46464;BME280;32161;48.148;-1.554;2022-07-12T12:42:50;101620.19;;;35.91;34.35
46464;BME280;32161;48.148;-1.554;2022-07-12T12:45:23;101629.63;;;35.99;35.22
46464;BME280;32161;48.148;-1.554;2022-07-12T12:48:01;101626.16;;;36.13;34.34
46464;BME280;32161;48.148;-1.554;2022-07-12T12:50:43;101624.34;;;36.31;33.17
46464;BME280;32161;48.148;-1.554;2022-07-12T12:53:15;101625.25;;;36.39;32.74
46464;BME280;32161;48.148;-1.554;2022-07-12T12:55:45;101620.75;;;36.34;32.94
46464;BME280;32161;48.148;-1.554;2022-07-12T12:58:15;101618.00;;;36.41;33.21